Time;durP1;ratioP1;P1;durP2;ratioP2;P2;SDS_P1;SDS_P2;PMS_P1;PMS_P2;Temp;Humidity;BMP_temperature;BMP_pressure;BME280_temperature;BME280_humidity;BME280_pressure;Samples;Min_cycle;Max_cycle;Signal;HPM_P1;HPM_P2
2022/04/03 00:02:04;;;;;;;3.97;2.75;;;;;;;;;;10454161;27;20523;-64
2022/04/03 00:07:03;;;;;;;5.97;2.35;;;;;;;;;;10472337;27;20503;-64
2022/04/03 00:12:03;;;;;;;4.22;3.15;;;;;;;;;;10457121;27;20046;-63
2022/04/03 00:17:01;;;;;;;3.25;2.42;;;;;;;;;;10465698;27;20514;-63
2022/04/03 00:22:01;;;;;;;5.30;2.35;;;;;;;;;;10453616;27;20066;-63
2022/04/03 00:26:59;;;;;;;6.22;2.42;;;;;;;;;;10471794;27;20069;-64
2022/04/03 00:31:59;;;;;;;3.28;2.35;;;;;;;;;;10451880;27;20051;-64
2022/04/03 00:36:57;;;;;;;2.45;1.98;;;;;;;;;;10470477;27;20082;-64
2022/04/03 00:41:56;;;;;;;3.42;2.15;;;;;;;;;;10471647;27;20438;-62
2022/04/03 00:46:55;;;;;;;3.28;2.58;;;;;;;;;;10470695;27;20081;-61
2022/04/03 00:51:55;;;;;;;3.42;2.13;;;;;;;;;;10471223;27;20066;-61
2022/04/03 00:56:53;;;;;;;3.97;2.58;;;;;;;;;;10470751;27;20093;-61
2022/04/03 01:01:52;;;;;;;5.18;2.40;;;;;;;;;;10469740;27;20051;-61
2022/04/03 01:06:51;;;;;;;4.43;2.25;;;;;;;;;;10470749;27;20575;-60
2022/04/03 01:11:51;;;;;;;3.40;2.17;;;;;;;;;;10470199;27;20103;-61
2022/04/03 01:16:49;;;;;;;2.63;2.05;;;;;;;;;;10468895;27;20491;-61
2022/04/03 01:21:47;;;;;;;2.88;2.08;;;;;;;;;;10469640;27;20523;-61
2022/04/03 01:26:47;;;;;;;3.75;2.22;;;;;;;;;;10466798;27;20558;-61
2022/04/03 01:31:46;;;;;;;2.90;2.58;;;;;;;;;;10449036;27;20043;-61
2022/04/03 01:36:45;;;;;;;3.67;2.60;;;;;;;;;;10452274;27;20073;-60
2022/04/03 01:41:44;;;;;;;3.50;2.20;;;;;;;;;;10457480;27;20071;-61
2022/04/03 01:46:44;;;;;;;3.30;2.25;;;;;;;;;;10432897;27;20062;-61
2022/04/03 01:51:42;;;;;;;4.07;2.67;;;;;;;;;;10466454;27;20066;-61
2022/04/03 01:56:40;;;;;;;4.20;2.65;;;;;;;;;;10468718;27;20041;-61
2022/04/03 02:01:39;;;;;;;3.67;2.65;;;;;;;;;;10437895;27;20101;-62
2022/04/03 02:06:40;;;;;;;3.40;2.42;;;;;;;;;;10442877;27;20483;-61
2022/04/03 02:11:39;;;;;;;3.60;2.42;;;;;;;;;;10466728;27;20042;-61
2022/04/03 02:16:37;;;;;;;3.53;2.42;;;;;;;;;;10436408;27;20071;-62
2022/04/03 02:21:35;;;;;;;5.47;3.15;;;;;;;;;;10436163;27;20074;-62
2022/04/03 02:26:35;;;;;;;7.13;3.15;;;;;;;;;;10437471;27;20043;-62
2022/04/03 02:31:33;;;;;;;4.95;2.50;;;;;;;;;;10419569;28;20046;-62
2022/04/03 02:36:32;;;;;;;4.45;2.10;;;;;;;;;;10438624;28;20039;-62
2022/04/03 02:41:30;;;;;;;3.13;1.80;;;;;;;;;;10440196;27;20070;-62
2022/04/03 02:46:30;;;;;;;6.07;3.33;;;;;;;;;;10465761;27;20702;-62
2022/04/03 02:51:28;;;;;;;4.15;2.40;;;;;;;;;;10447157;27;20054;-62
2022/04/03 02:56:27;;;;;;;4.32;2.13;;;;;;;;;;10465691;27;20070;-62
2022/04/03 03:01:25;;;;;;;6.35;2.50;;;;;;;;;;10469388;27;20089;-61
2022/04/03 03:06:25;;;;;;;5.88;2.30;;;;;;;;;;10474223;27;20062;-62
2022/04/03 03:11:23;;;;;;;10.30;6.30;;;;;;;;;;10474241;27;20058;-62
2022/04/03 03:16:21;;;;;;;7.53;6.32;;;;;;;;;;10473890;27;20073;-62
2022/04/03 03:21:21;;;;;;;3.95;2.45;;;;;;;;;;10472918;27;20074;-61
2022/04/03 03:26:21;;;;;;;3.88;2.50;;;;;;;;;;10473508;27;20059;-62
2022/04/03 03:31:19;;;;;;;4.47;2.97;;;;;;;;;;10473975;27;20039;-61
2022/04/03 03:36:19;;;;;;;5.22;2.83;;;;;;;;;;10446457;27;20093;-61
2022/04/03 03:41:17;;;;;;;5.18;3.20;;;;;;;;;;10463547;27;20063;-61
2022/04/03 03:46:17;;;;;;;11.27;3.17;;;;;;;;;;10471275;27;20500;-60
2022/04/03 03:51:15;;;;;;;6.57;3.20;;;;;;;;;;10455294;27;20039;-62
2022/04/03 03:56:14;;;;;;;5.88;3.17;;;;;;;;;;10472414;27;20058;-61
2022/04/03 04:01:12;;;;;;;5.53;3.30;;;;;;;;;;10471944;27;20526;-61
2022/04/03 04:06:12;;;;;;;5.22;2.97;;;;;;;;;;10471785;27;20062;-61
2022/04/03 04:11:11;;;;;;;6.30;4.60;;;;;;;;;;10467193;27;20510;-61
2022/04/03 04:16:10;;;;;;;4.80;3.78;;;;;;;;;;10466204;27;20078;-59
2022/04/03 04:21:10;;;;;;;7.25;4.43;;;;;;;;;;10466936;27;20082;-61
2022/04/03 04:26:10;;;;;;;4.85;3.60;;;;;;;;;;10476340;27;20097;-61
2022/04/03 04:31:08;;;;;;;5.07;3.35;;;;;;;;;;10453148;27;20063;-61
2022/04/03 04:36:07;;;;;;;5.28;3.75;;;;;;;;;;10462910;27;20586;-60
2022/04/03 04:41:05;;;;;;;4.82;3.67;;;;;;;;;;10457928;27;20459;-61
2022/04/03 04:46:05;;;;;;;4.70;3.67;;;;;;;;;;10461106;27;20074;-60
2022/04/03 04:51:03;;;;;;;3.97;3.28;;;;;;;;;;10448645;27;20066;-62
2022/04/03 04:56:02;;;;;;;5.45;4.53;;;;;;;;;;10467765;27;20063;-63
2022/04/03 05:01:00;;;;;;;7.45;5.15;;;;;;;;;;10464635;27;20454;-62
2022/04/03 05:06:00;;;;;;;5.75;3.60;;;;;;;;;;10467359;27;20065;-60
2022/04/03 05:10:58;;;;;;;5.50;4.05;;;;;;;;;;10450687;27;20522;-63
2022/04/03 05:15:57;;;;;;;6.53;5.30;;;;;;;;;;10469236;27;20106;-62
2022/04/03 05:20:55;;;;;;;7.22;5.40;;;;;;;;;;10458533;27;20070;-62
2022/04/03 05:25:55;;;;;;;6.22;4.40;;;;;;;;;;10457947;27;20081;-61
2022/04/03 05:30:53;;;;;;;7.30;4.68;;;;;;;;;;10452296;27;20083;-61
2022/04/03 05:35:52;;;;;;;6.07;4.43;;;;;;;;;;10442857;27;20047;-62
2022/04/03 05:40:51;;;;;;;8.30;4.93;;;;;;;;;;10459010;27;20071;-62
2022/04/03 05:45:51;;;;;;;8.57;6.15;;;;;;;;;;10452809;27;20066;-61
2022/04/03 05:50:50;;;;;;;6.32;4.55;;;;;;;;;;10464708;27;20063;-61
2022/04/03 05:55:48;;;;;;;8.00;6.40;;;;;;;;;;10473162;27;20039;-62
2022/04/03 06:00:46;;;;;;;5.50;4.53;;;;;;;;;;10462273;27;20077;-62
2022/04/03 06:05:47;;;;;;;7.82;5.05;;;;;;;;;;10464305;27;20113;-60
2022/04/03 06:10:45;;;;;;;6.35;4.38;;;;;;;;;;10455154;27;20073;-61
2022/04/03 06:15:46;;;;;;;6.43;4.85;;;;;;;;;;10467114;27;20089;-61
2022/04/03 06:20:47;;;;;;;6.53;5.13;;;;;;;;;;10448113;27;20074;-61
2022/04/03 06:25:46;;;;;;;10.32;6.07;;;;;;;;;;10463557;27;20472;-61
2022/04/03 06:30:45;;;;;;;12.15;6.65;;;;;;;;;;10447980;27;20057;-61
2022/04/03 06:35:44;;;;;;;10.05;6.20;;;;;;;;;;10449119;27;20054;-60
2022/04/03 06:40:45;;;;;;;7.75;5.63;;;;;;;;;;10448865;27;20075;-61
2022/04/03 06:45:43;;;;;;;7.43;5.80;;;;;;;;;;10452243;27;20086;-61
2022/04/03 06:50:42;;;;;;;9.48;6.38;;;;;;;;;;10442092;27;20071;-61
2022/04/03 06:55:41;;;;;;;5.85;5.25;;;;;;;;;;10462053;27;20070;-61
2022/04/03 07:00:41;;;;;;;9.45;7.90;;;;;;;;;;10452573;27;20082;-61
2022/04/03 07:05:39;;;;;;;12.85;7.80;;;;;;;;;;10445417;27;20522;-64
2022/04/03 07:10:37;;;;;;;7.85;6.20;;;;;;;;;;10444029;27;20050;-63
2022/04/03 07:15:35;;;;;;;7.88;6.07;;;;;;;;;;10443876;27;20083;-64
2022/04/03 07:20:35;;;;;;;14.35;8.75;;;;;;;;;;10444369;27;20136;-64
2022/04/03 07:25:34;;;;;;;7.38;5.97;;;;;;;;;;10450831;27;20070;-63
2022/04/03 07:30:32;;;;;;;9.30;6.50;;;;;;;;;;10465828;27;20491;-63
2022/04/03 07:35:31;;;;;;;11.00;7.78;;;;;;;;;;10453898;27;20073;-60
2022/04/03 07:40:31;;;;;;;14.63;8.45;;;;;;;;;;10471207;27;20074;-63
2022/04/03 07:45:50;;;;;;;6.70;4.32;;;;;;;;;;10466794;27;20511;-62
2022/04/03 07:50:48;;;;;;;4.82;3.67;;;;;;;;;;10458378;27;20438;-62
2022/04/03 07:55:48;;;;;;;10.15;5.25;;;;;;;;;;10465804;27;20514;-63
2022/04/03 08:00:47;;;;;;;6.78;3.88;;;;;;;;;;10469249;27;20078;-62
2022/04/03 08:05:45;;;;;;;7.53;5.60;;;;;;;;;;10469045;27;20046;-64
2022/04/03 08:10:43;;;;;;;4.28;3.17;;;;;;;;;;10470014;27;20066;-61
2022/04/03 08:15:43;;;;;;;5.60;3.75;;;;;;;;;;10454616;27;20043;-62
2022/04/03 08:20:41;;;;;;;6.22;4.43;;;;;;;;;;10457006;27;20074;-62
2022/04/03 08:25:40;;;;;;;5.88;4.82;;;;;;;;;;10467545;27;20046;-63
2022/04/03 08:30:39;;;;;;;6.65;5.10;;;;;;;;;;10468644;27;20070;-63
2022/04/03 08:35:40;;;;;;;10.60;5.55;;;;;;;;;;10458414;27;20067;-63
2022/04/03 08:40:38;;;;;;;6.15;5.40;;;;;;;;;;10469756;27;20469;-63
2022/04/03 08:45:38;;;;;;;10.55;8.38;;;;;;;;;;10467409;27;20402;-63
2022/04/03 08:50:38;;;;;;;12.88;8.18;;;;;;;;;;10469420;27;20039;-64
2022/04/03 08:55:38;;;;;;;10.40;7.00;;;;;;;;;;10450227;27;20166;-63
2022/04/03 09:00:36;;;;;;;11.30;8.00;;;;;;;;;;10445211;27;20617;-62
2022/04/03 09:05:43;;;;;;;12.32;9.38;;;;;;;;;;10457362;27;20091;-60
2022/04/03 09:11:02;;;;;;;14.52;10.98;;;;;;;;;;10467688;27;20071;-62
2022/04/03 09:16:00;;;;;;;12.48;10.38;;;;;;;;;;10453629;27;20089;-63
2022/04/03 09:21:01;;;;;;;14.60;10.88;;;;;;;;;;10441613;27;20074;-62
2022/04/03 09:26:15;;;;;;;11.05;9.30;;;;;;;;;;10459682;27;20086;-65
2022/04/03 09:31:25;;;;;;;9.15;7.10;;;;;;;;;;10448480;27;20071;-63
2022/04/03 09:36:23;;;;;;;12.50;9.90;;;;;;;;;;10446944;27;20323;-64
2022/04/03 09:41:28;;;;;;;12.02;9.70;;;;;;;;;;10436867;27;20066;-64
2022/04/03 09:46:29;;;;;;;15.05;9.15;;;;;;;;;;10439257;27;20063;-63
2022/04/03 09:51:30;;;;;;;16.40;10.60;;;;;;;;;;10435467;27;20125;-64
2022/04/03 09:56:33;;;;;;;13.55;8.52;;;;;;;;;;10417304;27;20390;-63
2022/04/03 10:01:34;;;;;;;12.10;8.77;;;;;;;;;;10436140;27;20066;-63
2022/04/03 10:06:33;;;;;;;16.35;12.35;;;;;;;;;;10436107;27;20492;-63
2022/04/03 10:11:33;;;;;;;10.45;9.00;;;;;;;;;;10435971;27;20460;-63
2022/04/03 10:16:31;;;;;;;13.15;8.70;;;;;;;;;;10435036;27;20452;-63
2022/04/03 10:21:32;;;;;;;12.25;9.15;;;;;;;;;;10434548;27;20076;-63
2022/04/03 10:26:33;;;;;;;13.15;7.85;;;;;;;;;;10437811;27;20081;-63
2022/04/03 10:31:34;;;;;;;14.05;8.85;;;;;;;;;;10436282;27;20078;-63
2022/04/03 10:36:34;;;;;;;15.75;11.48;;;;;;;;;;10436016;27;20081;-62
2022/04/03 10:41:34;;;;;;;10.82;9.20;;;;;;;;;;10436778;27;20067;-63
2022/04/03 10:46:33;;;;;;;9.38;7.18;;;;;;;;;;10420639;27;20083;-63
2022/04/03 10:51:33;;;;;;;8.77;7.13;;;;;;;;;;10418354;27;20051;-63
2022/04/03 10:56:32;;;;;;;8.95;6.10;;;;;;;;;;10440070;27;20408;-63
2022/04/03 11:01:32;;;;;;;11.80;5.13;;;;;;;;;;10435966;27;20069;-63
2022/04/03 11:06:34;;;;;;;7.60;5.38;;;;;;;;;;10435133;27;20478;-63
2022/04/03 11:11:33;;;;;;;11.27;7.40;;;;;;;;;;10437018;27;20503;-62
2022/04/03 11:16:49;;;;;;;9.00;4.50;;;;;;;;;;10435160;27;20074;-62
2022/04/03 11:21:49;;;;;;;10.85;4.85;;;;;;;;;;10437331;27;20078;-63
2022/04/03 11:26:50;;;;;;;16.52;5.32;;;;;;;;;;10442759;27;20067;-62
2022/04/03 11:31:50;;;;;;;5.45;3.65;;;;;;;;;;10429702;27;20532;-62
2022/04/03 11:36:56;;;;;;;22.75;5.25;;;;;;;;;;10461763;27;20070;-62
2022/04/03 11:41:54;;;;;;;11.60;6.57;;;;;;;;;;10447951;27;20077;-63
2022/04/03 11:46:52;;;;;;;15.68;7.07;;;;;;;;;;10445635;27;20059;-62
2022/04/03 11:51:54;;;;;;;19.25;5.63;;;;;;;;;;10459294;27;20487;-62
2022/04/03 11:56:59;;;;;;;22.65;7.22;;;;;;;;;;10447053;27;20079;-62
2022/04/03 12:01:58;;;;;;;15.15;8.95;;;;;;;;;;10440762;27;20074;-61
2022/04/03 12:06:59;;;;;;;17.80;8.13;;;;;;;;;;10422158;27;20495;-62
2022/04/03 12:12:01;;;;;;;15.95;8.45;;;;;;;;;;10444765;27;20569;-64
2022/04/03 12:17:00;;;;;;;24.73;8.13;;;;;;;;;;10460989;27;20050;-61
2022/04/03 12:22:04;;;;;;;18.13;9.52;;;;;;;;;;10466857;27;20074;-63
2022/04/03 12:27:03;;;;;;;8.80;7.57;;;;;;;;;;10454062;27;20039;-64
2022/04/03 12:32:02;;;;;;;11.77;6.72;;;;;;;;;;10469405;27;20448;-63
2022/04/03 12:37:03;;;;;;;13.82;8.77;;;;;;;;;;10456285;27;20059;-63
2022/04/03 12:42:26;;;;;;;17.83;5.95;;;;;;;;;;10446186;27;20083;-63
2022/04/03 12:47:25;;;;;;;12.23;5.93;;;;;;;;;;10465128;27;20073;-63
2022/04/03 12:52:41;;;;;;;10.65;6.53;;;;;;;;;;10463010;27;20546;-64
2022/04/03 13:02:55;;;;;;;15.80;6.25;;;;;;;;;;10454922;27;20513;-63
2022/04/03 13:07:55;;;;;;;14.52;5.78;;;;;;;;;;10454363;27;20470;-63
2022/04/03 13:12:54;;;;;;;14.57;5.57;;;;;;;;;;10466724;27;20474;-63
2022/04/03 13:17:52;;;;;;;13.48;5.57;;;;;;;;;;10474084;27;20082;-63
2022/04/03 13:22:51;;;;;;;14.27;5.50;;;;;;;;;;10465805;27;20165;-64
2022/04/03 13:27:50;;;;;;;12.98;4.78;;;;;;;;;;10466494;27;20079;-64
2022/04/03 13:32:49;;;;;;;7.22;4.70;;;;;;;;;;10465516;27;20074;-63
2022/04/03 13:37:48;;;;;;;8.57;5.68;;;;;;;;;;10465644;27;20067;-63
2022/04/03 13:42:47;;;;;;;8.93;4.30;;;;;;;;;;10466414;27;20074;-62
2022/04/03 13:47:47;;;;;;;6.47;4.55;;;;;;;;;;10436018;27;20085;-62
2022/04/03 13:52:45;;;;;;;9.93;5.13;;;;;;;;;;10464238;27;20553;-63
2022/04/03 13:57:43;;;;;;;8.65;4.85;;;;;;;;;;10452529;27;20871;-63
2022/04/03 14:02:43;;;;;;;11.75;5.72;;;;;;;;;;10450432;27;20529;-63
2022/04/03 14:07:43;;;;;;;11.10;5.65;;;;;;;;;;10456335;27;20066;-63
2022/04/03 14:12:48;;;;;;;8.55;4.95;;;;;;;;;;10442869;27;20070;-64
2022/04/03 14:17:46;;;;;;;7.07;4.35;;;;;;;;;;10458209;27;20081;-63
2022/04/03 14:22:46;;;;;;;8.35;4.82;;;;;;;;;;10431921;27;20077;-63
2022/04/03 14:27:44;;;;;;;9.63;5.80;;;;;;;;;;10453473;27;20067;-63
2022/04/03 14:32:46;;;;;;;12.63;5.97;;;;;;;;;;10452556;27;20059;-63
2022/04/03 14:37:45;;;;;;;8.18;5.55;;;;;;;;;;10449941;27;20405;-61
2022/04/03 14:42:44;;;;;;;7.40;4.60;;;;;;;;;;10453933;27;20078;-61
2022/04/03 14:47:44;;;;;;;20.38;6.40;;;;;;;;;;10445345;27;20051;-65
2022/04/03 14:52:43;;;;;;;13.30;5.65;;;;;;;;;;10465286;27;20039;-62
2022/04/03 14:57:42;;;;;;;12.98;5.40;;;;;;;;;;10481001;27;20074;-61
2022/04/03 15:02:41;;;;;;;12.27;5.35;;;;;;;;;;10445568;27;20514;-63
2022/04/03 15:07:40;;;;;;;16.77;7.72;;;;;;;;;;10476950;27;20061;-62
2022/04/03 15:12:38;;;;;;;13.43;6.45;;;;;;;;;;10454391;27;20074;-64
2022/04/03 15:17:38;;;;;;;11.82;5.18;;;;;;;;;;10468264;27;20074;-64
2022/04/03 15:22:36;;;;;;;15.25;8.50;;;;;;;;;;10471842;27;20079;-64
2022/04/03 15:27:34;;;;;;;17.25;10.23;;;;;;;;;;10470550;27;20074;-63
2022/04/03 15:32:33;;;;;;;21.98;14.40;;;;;;;;;;10474011;27;20074;-63
2022/04/03 15:37:35;;;;;;;20.25;13.82;;;;;;;;;;10455978;27;20074;-64
2022/04/03 15:42:34;;;;;;;27.05;14.82;;;;;;;;;;10483327;27;20070;-63
2022/04/03 15:47:32;;;;;;;25.95;16.98;;;;;;;;;;10483367;27;20081;-63
2022/04/03 15:52:31;;;;;;;32.08;14.63;;;;;;;;;;10472684;27;20055;-62
2022/04/03 15:57:37;;;;;;;11.60;8.70;;;;;;;;;;10482736;27;20085;-64
2022/04/03 16:02:35;;;;;;;18.17;8.98;;;;;;;;;;10481735;27;20073;-63
2022/04/03 16:07:35;;;;;;;9.38;7.25;;;;;;;;;;10460031;27;20077;-63
2022/04/03 16:12:35;;;;;;;15.80;11.15;;;;;;;;;;10454701;27;20448;-63
2022/04/03 16:17:33;;;;;;;15.35;10.70;;;;;;;;;;10460481;27;20089;-64
2022/04/03 16:22:33;;;;;;;27.05;17.80;;;;;;;;;;10456527;27;20092;-62
2022/04/03 16:27:31;;;;;;;12.20;10.82;;;;;;;;;;10453309;27;20066;-63
2022/04/03 16:32:31;;;;;;;26.20;16.88;;;;;;;;;;10448417;27;20483;-63
2022/04/03 16:37:29;;;;;;;26.05;11.65;;;;;;;;;;10457673;27;20055;-63
2022/04/03 16:42:28;;;;;;;17.20;12.30;;;;;;;;;;10456070;27;20101;-63
2022/04/03 16:47:27;;;;;;;20.02;13.48;;;;;;;;;;10453842;27;20093;-63
2022/04/03 16:52:26;;;;;;;35.67;19.60;;;;;;;;;;10458726;27;20086;-62
2022/04/03 16:57:25;;;;;;;44.95;31.15;;;;;;;;;;10465612;27;20078;-62
2022/04/03 17:02:23;;;;;;;15.25;12.48;;;;;;;;;;10455924;27;20128;-63
2022/04/03 17:07:23;;;;;;;26.85;17.98;;;;;;;;;;10470864;27;20074;-63
2022/04/03 17:12:25;;;;;;;39.72;26.67;;;;;;;;;;10466610;27;20059;-63
2022/04/03 17:17:23;;;;;;;26.10;17.95;;;;;;;;;;10466937;27;20087;-63
2022/04/03 17:22:22;;;;;;;17.42;13.43;;;;;;;;;;10456398;27;20074;-64
2022/04/03 17:27:21;;;;;;;22.45;18.20;;;;;;;;;;10477772;27;20491;-64
2022/04/03 17:32:20;;;;;;;25.58;18.88;;;;;;;;;;10465193;27;20515;-63
2022/04/03 17:37:19;;;;;;;20.30;17.42;;;;;;;;;;10443810;27;20105;-63
2022/04/03 17:42:28;;;;;;;15.95;12.40;;;;;;;;;;10463166;27;20063;-63
2022/04/03 17:47:28;;;;;;;21.25;16.45;;;;;;;;;;10462705;27;20066;-63
2022/04/03 17:52:27;;;;;;;39.20;27.20;;;;;;;;;;10439963;27;20047;-63
2022/04/03 17:57:25;;;;;;;47.50;29.40;;;;;;;;;;10447653;27;20117;-62
2022/04/03 18:02:24;;;;;;;14.93;12.18;;;;;;;;;;10457911;27;20077;-63
2022/04/03 18:07:24;;;;;;;17.35;14.02;;;;;;;;;;10453324;27;20071;-62
2022/04/03 18:12:22;;;;;;;22.42;16.70;;;;;;;;;;10471098;27;20070;-63
2022/04/03 18:17:20;;;;;;;14.35;12.85;;;;;;;;;;10464390;27;20058;-63
2022/04/03 18:22:30;;;;;;;16.05;12.88;;;;;;;;;;10467119;27;20071;-63
2022/04/03 18:27:29;;;;;;;23.67;15.23;;;;;;;;;;10461084;27;20071;-63
2022/04/03 18:32:27;;;;;;;19.60;15.05;;;;;;;;;;10458750;27;20050;-62
2022/04/03 18:37:25;;;;;;;13.60;10.55;;;;;;;;;;10440785;27;20531;-62
2022/04/03 18:42:25;;;;;;;19.58;16.30;;;;;;;;;;10457567;27;20039;-63
2022/04/03 18:47:24;;;;;;;12.63;9.88;;;;;;;;;;10479979;27;20564;-62
2022/04/03 18:52:22;;;;;;;11.02;9.90;;;;;;;;;;10458208;27;20058;-62
2022/04/03 18:57:20;;;;;;;13.00;10.65;;;;;;;;;;10444452;27;20067;-61
2022/04/03 19:02:21;;;;;;;14.82;11.15;;;;;;;;;;10467060;27;20035;-63
2022/04/03 19:07:20;;;;;;;12.88;10.98;;;;;;;;;;10471346;27;20089;-63
2022/04/03 19:12:18;;;;;;;12.88;10.15;;;;;;;;;;10454404;27;20067;-63
2022/04/03 19:17:18;;;;;;;15.10;11.85;;;;;;;;;;10443763;27;20109;-62
2022/04/03 19:22:20;;;;;;;23.25;16.40;;;;;;;;;;10443747;27;20074;-63
2022/04/03 19:27:19;;;;;;;17.45;12.38;;;;;;;;;;10461450;27;20066;-63
2022/04/03 19:32:18;;;;;;;15.93;12.50;;;;;;;;;;10442491;27;20067;-63
2022/04/03 19:37:16;;;;;;;13.00;10.70;;;;;;;;;;10465215;27;20077;-63
2022/04/03 19:42:16;;;;;;;9.45;8.45;;;;;;;;;;10438365;27;20043;-65
2022/04/03 19:47:14;;;;;;;11.98;9.20;;;;;;;;;;10471901;27;20071;-63
2022/04/03 19:52:12;;;;;;;12.05;9.30;;;;;;;;;;10466801;27;20066;-62
2022/04/03 19:57:11;;;;;;;10.13;9.00;;;;;;;;;;10465667;27;20074;-63
2022/04/03 20:02:11;;;;;;;13.68;9.95;;;;;;;;;;10451350;27;20067;-63
2022/04/03 20:07:09;;;;;;;12.27;9.52;;;;;;;;;;10460177;27;20487;-62
2022/04/03 20:12:08;;;;;;;9.50;8.57;;;;;;;;;;10467925;27;20075;-64
2022/04/03 20:17:07;;;;;;;9.27;8.23;;;;;;;;;;10468846;27;20082;-64
2022/04/03 20:22:07;;;;;;;11.70;9.73;;;;;;;;;;10469968;27;20075;-63
2022/04/03 20:27:06;;;;;;;12.02;9.60;;;;;;;;;;10460945;27;20195;-63
2022/04/03 20:32:04;;;;;;;11.88;9.45;;;;;;;;;;10449393;27;20282;-63
2022/04/03 20:37:04;;;;;;;9.57;8.68;;;;;;;;;;10471052;27;20077;-63
2022/04/03 20:42:04;;;;;;;14.90;10.65;;;;;;;;;;10471159;27;20086;-62
2022/04/03 20:47:03;;;;;;;11.48;9.10;;;;;;;;;;10470562;27;20075;-63
2022/04/03 20:52:01;;;;;;;10.10;8.68;;;;;;;;;;10470973;27;20074;-62
2022/04/03 20:56:59;;;;;;;14.70;8.25;;;;;;;;;;10469174;27;20491;-62
2022/04/03 21:01:59;;;;;;;11.27;8.57;;;;;;;;;;10471046;27;21048;-63
2022/04/03 21:06:57;;;;;;;10.30;9.25;;;;;;;;;;10470697;27;20077;-62
2022/04/03 21:11:57;;;;;;;10.65;9.48;;;;;;;;;;10470481;27;20070;-62
2022/04/03 21:16:55;;;;;;;9.48;8.48;;;;;;;;;;10469639;27;20082;-62
2022/04/03 21:21:55;;;;;;;10.88;8.93;;;;;;;;;;10470307;27;20050;-62
2022/04/03 21:26:53;;;;;;;9.18;8.05;;;;;;;;;;10468569;27;20525;-62
2022/04/03 21:31:51;;;;;;;9.45;8.32;;;;;;;;;;10469683;27;20039;-62
2022/04/03 21:36:49;;;;;;;9.80;7.80;;;;;;;;;;10468423;27;20066;-62
2022/04/03 21:41:49;;;;;;;10.18;8.23;;;;;;;;;;10469046;27;20443;-63
2022/04/03 21:46:48;;;;;;;11.00;8.55;;;;;;;;;;10468908;27;20510;-62
2022/04/03 21:51:46;;;;;;;10.05;9.02;;;;;;;;;;10469111;27;20030;-62
2022/04/03 21:56:44;;;;;;;9.43;8.35;;;;;;;;;;10468690;27;20066;-63
2022/04/03 22:01:44;;;;;;;8.77;7.82;;;;;;;;;;10467634;27;20427;-63
2022/04/03 22:06:43;;;;;;;11.10;9.30;;;;;;;;;;10468053;27;20062;-63
2022/04/03 22:11:41;;;;;;;10.93;8.88;;;;;;;;;;10467158;27;20518;-65
2022/04/03 22:16:39;;;;;;;9.60;8.60;;;;;;;;;;10450387;27;20054;-64
2022/04/03 22:21:39;;;;;;;10.20;8.90;;;;;;;;;;10467386;27;20525;-63
2022/04/03 22:26:37;;;;;;;9.98;8.68;;;;;;;;;;10465896;27;20864;-63
2022/04/03 22:31:36;;;;;;;8.73;7.82;;;;;;;;;;10467826;27;20077;-62
2022/04/03 22:36:41;;;;;;;9.85;8.80;;;;;;;;;;10466665;27;20085;-63
2022/04/03 22:41:39;;;;;;;10.65;9.60;;;;;;;;;;10442190;27;20466;-62
2022/04/03 22:46:38;;;;;;;9.98;8.43;;;;;;;;;;10466030;27;20540;-62
2022/04/03 22:51:36;;;;;;;10.10;8.60;;;;;;;;;;10447238;27;20043;-62
2022/04/03 22:56:36;;;;;;;10.13;9.00;;;;;;;;;;10466442;27;20042;-62
2022/04/03 23:01:34;;;;;;;9.50;8.32;;;;;;;;;;10465484;27;20073;-63
2022/04/03 23:06:35;;;;;;;9.60;8.68;;;;;;;;;;10465263;27;20077;-62
2022/04/03 23:11:33;;;;;;;9.88;8.55;;;;;;;;;;10466635;27;20062;-64
2022/04/03 23:16:33;;;;;;;10.80;9.57;;;;;;;;;;10465691;27;20116;-64
2022/04/03 23:21:31;;;;;;;10.65;8.55;;;;;;;;;;10474052;27;20467;-63
2022/04/03 23:26:29;;;;;;;10.57;8.98;;;;;;;;;;10473713;27;20063;-64
2022/04/03 23:31:28;;;;;;;10.02;8.35;;;;;;;;;;10472545;27;20073;-64
2022/04/03 23:36:28;;;;;;;8.75;7.95;;;;;;;;;;10471983;27;20479;-63
2022/04/03 23:41:26;;;;;;;8.38;7.57;;;;;;;;;;10453939;27;20040;-64
2022/04/03 23:46:24;;;;;;;8.68;7.78;;;;;;;;;;10453944;27;20074;-64
2022/04/03 23:51:23;;;;;;;8.82;7.78;;;;;;;;;;10454508;27;20339;-63
2022/04/03 23:56:23;;;;;;;8.98;8.07;;;;;;;;;;10471983;27;20078;-63
